createdAt,value
2023-02-11T00:00:22.868Z,46.45
2023-02-11T00:02:49.728Z,47.17
2023-02-11T00:05:16.702Z,46.92
2023-02-11T00:07:43.563Z,44.93
2023-02-11T00:10:10.468Z,47.93
2023-02-11T00:12:38.254Z,46.88
2023-02-11T00:15:07.671Z,48.10
2023-02-11T00:17:34.459Z,47.65
2023-02-11T00:20:01.365Z,47.40
2023-02-11T00:22:28.220Z,47.80
2023-02-11T00:24:57.151Z,47.43
2023-02-11T00:27:23.969Z,45.90
2023-02-11T00:29:50.850Z,46.22
2023-02-11T00:32:17.709Z,45.85
2023-02-11T00:34:44.607Z,47.25
2023-02-11T00:37:12.165Z,44.85
2023-02-11T00:39:39.151Z,45.88
2023-02-11T00:42:06.035Z,43.97
2023-02-11T00:44:32.860Z,44.83
2023-02-11T00:47:00.230Z,43.83
2023-02-11T00:49:27.085Z,42.53
2023-02-11T00:51:53.902Z,43.65
2023-02-11T00:54:20.768Z,42.75
2023-02-11T00:56:47.625Z,42.78
2023-02-11T00:59:14.444Z,41.40
2023-02-11T01:01:41.464Z,41.15
2023-02-11T01:04:08.423Z,42.33
2023-02-11T01:06:35.256Z,41.47
2023-02-11T01:09:02.040Z,42.37
2023-02-11T01:11:28.900Z,41.70
2023-02-11T01:13:55.681Z,42.40
2023-02-11T01:16:22.692Z,41.50
2023-02-11T01:18:49.681Z,40.80
2023-02-11T01:21:16.713Z,39.67
2023-02-11T01:23:43.624Z,37.85
2023-02-11T01:26:10.725Z,38.47
2023-02-11T01:28:37.737Z,36.22
2023-02-11T01:31:04.870Z,35.92
2023-02-11T01:33:31.762Z,36.00
2023-02-11T01:36:04.100Z,35.13
2023-02-11T01:38:31.800Z,35.13
2023-02-11T01:41:02.084Z,34.72
2023-02-11T01:43:33.355Z,35.13
2023-02-11T01:46:14.910Z,34.97
2023-02-11T01:48:45.580Z,35.53
2023-02-11T01:51:26.631Z,33.97
2023-02-11T01:54:14.038Z,33.38
2023-02-11T01:57:05.976Z,33.33
2023-02-11T01:59:40.914Z,31.92
2023-02-11T02:02:11.945Z,31.95
2023-02-11T02:04:50.793Z,32.83
2023-02-11T02:07:25.247Z,30.77
2023-02-11T02:10:00.156Z,31.25
2023-02-11T02:12:26.986Z,30.42
2023-02-11T02:17:42.945Z,31.33
2023-02-11T02:20:38.230Z,29.77
2023-02-11T02:23:11.142Z,30.73
2023-02-11T02:26:03.885Z,29.77
2023-02-11T02:28:50.963Z,28.80
2023-02-11T02:31:47.314Z,28.70
2023-02-11T02:34:29.332Z,28.42
2023-02-11T02:37:06.355Z,27.35
2023-02-11T02:39:36.362Z,26.92
2023-02-11T02:42:04.728Z,28.08
2023-02-11T02:44:32.169Z,28.70
2023-02-11T02:46:59.091Z,26.30
2023-02-11T02:49:25.982Z,26.55
2023-02-11T02:52:15.542Z,25.00
2023-02-11T02:55:03.301Z,25.55
2023-02-11T02:57:52.459Z,25.52
2023-02-11T03:00:48.275Z,25.13
2023-02-11T03:03:26.716Z,24.23
2023-02-11T03:06:08.907Z,24.40
2023-02-11T03:08:57.366Z,24.13
2023-02-11T03:11:25.330Z,23.25
2023-02-11T03:13:54.641Z,23.58
2023-02-11T03:16:26.305Z,22.27
2023-02-11T03:18:59.334Z,23.02
2023-02-11T03:21:27.890Z,22.27
2023-02-11T03:23:57.990Z,22.73
2023-02-11T03:26:46.926Z,22.42
2023-02-11T03:29:32.365Z,21.70
2023-02-11T03:32:01.967Z,22.08
2023-02-11T03:34:40.707Z,21.13
2023-02-11T03:37:23.718Z,21.00
2023-02-11T03:40:20.279Z,21.73
2023-02-11T03:43:17.327Z,21.47
2023-02-11T03:45:46.064Z,20.42
2023-02-11T03:48:15.903Z,21.45
2023-02-11T03:50:45.541Z,21.35
2023-02-11T03:53:14.194Z,21.58
2023-02-11T03:55:43.423Z,20.70
2023-02-11T03:58:10.528Z,20.05
2023-02-11T04:04:25.859Z,19.70
2023-02-11T04:06:53.320Z,21.20
2023-02-11T04:09:20.196Z,21.52
2023-02-11T04:11:47.036Z,22.15
2023-02-11T04:14:13.922Z,21.08
2023-02-11T04:16:40.762Z,20.42
2023-02-11T04:19:08.052Z,20.88
2023-02-11T04:21:34.902Z,21.13
2023-02-11T04:24:01.735Z,21.27
2023-02-11T04:26:28.551Z,21.15
2023-02-11T04:28:55.416Z,20.95
2023-02-11T04:31:22.374Z,21.02
2023-02-11T04:33:49.363Z,21.27
2023-02-11T04:36:16.179Z,21.77
2023-02-11T04:38:43.021Z,20.35
2023-02-11T04:41:09.927Z,21.50
2023-02-11T04:43:36.819Z,20.02
2023-02-11T04:46:03.798Z,20.98
2023-02-11T04:48:30.676Z,20.40
2023-02-11T04:50:57.507Z,21.73
2023-02-11T04:53:24.330Z,20.17
2023-02-11T04:55:51.594Z,20.52
2023-02-11T04:58:19.703Z,21.77
2023-02-11T05:00:46.977Z,20.92
2023-02-11T05:03:14.407Z,20.43
2023-02-11T05:05:42.735Z,21.50
2023-02-11T05:08:12.819Z,21.25
2023-02-11T05:10:39.693Z,21.52
2023-02-11T05:13:06.562Z,22.00
2023-02-11T05:15:33.559Z,21.55
2023-02-11T05:18:00.419Z,22.33
2023-02-11T05:20:27.272Z,22.25
2023-02-11T05:22:54.146Z,21.38
2023-02-11T05:25:21.181Z,21.25
2023-02-11T05:27:48.140Z,21.25
2023-02-11T05:30:15.257Z,22.17
2023-02-11T05:32:42.371Z,22.02
2023-02-11T05:35:09.685Z,22.88
2023-02-11T05:37:36.750Z,23.23
2023-02-11T05:40:04.598Z,22.73
2023-02-11T05:42:31.475Z,22.85
2023-02-11T05:44:58.451Z,22.75
2023-02-11T05:47:25.338Z,22.50
2023-02-11T05:49:53.639Z,22.52
2023-02-11T05:52:22.077Z,22.58
2023-02-11T05:54:49.038Z,22.87
2023-02-11T05:57:16.738Z,22.55
2023-02-11T05:59:43.952Z,23.58
2023-02-11T06:02:11.265Z,23.45
2023-02-11T06:04:38.420Z,23.80
2023-02-11T06:07:05.545Z,23.70
2023-02-11T06:09:32.435Z,23.70
2023-02-11T06:11:59.259Z,23.80
2023-02-11T06:14:26.116Z,24.43
2023-02-11T06:16:52.994Z,24.35
2023-02-11T06:19:19.858Z,24.40
2023-02-11T06:21:46.673Z,24.80
2023-02-11T06:24:13.642Z,24.70
2023-02-11T06:26:40.594Z,25.52
2023-02-11T06:29:07.760Z,25.90
2023-02-11T06:31:34.734Z,24.85
2023-02-11T06:34:01.608Z,24.85
2023-02-11T06:36:28.466Z,24.85
2023-02-11T06:38:55.655Z,25.05
2023-02-11T06:41:23.071Z,25.30
2023-02-11T06:43:50.169Z,25.30
2023-02-11T06:46:17.138Z,25.85
2023-02-11T06:48:45.060Z,24.20
2023-02-11T06:51:13.442Z,25.45
2023-02-11T06:53:43.493Z,26.10
2023-02-11T06:56:13.698Z,25.60
2023-02-11T06:58:40.574Z,26.55
2023-02-11T07:01:09.690Z,26.83
2023-02-11T07:03:39.515Z,27.77
2023-02-11T07:06:08.232Z,27.85
2023-02-11T07:08:36.905Z,27.48
2023-02-11T07:11:14.905Z,27.87
2023-02-11T07:13:42.050Z,28.33
2023-02-11T07:16:13.157Z,27.48
2023-02-11T07:18:40.397Z,27.67
2023-02-11T07:21:09.750Z,28.90
2023-02-11T07:23:37.822Z,30.77
2023-02-11T07:26:06.669Z,29.75
2023-02-11T07:28:35.508Z,31.75
2023-02-11T07:31:10.923Z,30.90
2023-02-11T07:33:38.181Z,30.77
2023-02-11T07:36:07.335Z,31.65
2023-02-11T07:38:35.640Z,29.23
2023-02-11T07:41:04.828Z,27.87
2023-02-11T07:43:32.714Z,26.93
2023-02-11T07:45:59.653Z,26.77
2023-02-11T07:48:26.465Z,27.10
2023-02-11T07:50:53.256Z,29.47
2023-02-11T07:53:20.230Z,28.30
2023-02-11T07:55:47.100Z,28.60
2023-02-11T07:58:13.907Z,28.43
2023-02-11T08:00:40.940Z,29.77
2023-02-11T08:03:08.415Z,28.70
2023-02-11T08:05:38.371Z,36.15
2023-02-11T08:08:05.255Z,36.38
2023-02-11T08:10:32.084Z,36.33
2023-02-11T08:12:58.868Z,33.40
2023-02-11T08:15:25.693Z,31.10
2023-02-11T08:17:52.629Z,30.20
2023-02-11T08:20:19.813Z,29.57
2023-02-11T08:22:46.832Z,29.90
2023-02-11T08:25:13.771Z,29.17
2023-02-11T08:27:40.610Z,37.08
2023-02-11T08:30:07.917Z,37.35
2023-02-11T08:32:35.354Z,36.53
2023-02-11T08:35:02.159Z,37.92
2023-02-11T08:37:31.388Z,39.30
2023-02-11T08:39:59.548Z,39.28
2023-02-11T08:42:26.436Z,37.33
2023-02-11T08:44:53.240Z,36.83
2023-02-11T08:47:20.077Z,38.17
2023-02-11T08:49:47.065Z,38.10
2023-02-11T08:52:13.961Z,38.58
2023-02-11T08:54:40.910Z,38.70
2023-02-11T08:57:07.730Z,38.42
2023-02-11T08:59:34.860Z,37.70
2023-02-11T09:02:01.737Z,38.53
2023-02-11T09:04:28.688Z,38.38
2023-02-11T09:06:55.567Z,40.17
2023-02-11T09:09:22.462Z,38.78
2023-02-11T09:11:49.318Z,39.47
2023-02-11T09:14:22.101Z,37.40
2023-02-11T09:16:50.056Z,38.00
2023-02-11T09:19:17.876Z,38.92
2023-02-11T09:21:44.879Z,38.28
2023-02-11T09:24:12.223Z,38.40
2023-02-11T09:26:41.297Z,37.25
2023-02-11T09:29:08.228Z,39.45
2023-02-11T09:31:35.570Z,39.38
2023-02-11T09:34:06.079Z,38.67
2023-02-11T09:36:37.507Z,38.75
2023-02-11T09:39:07.447Z,38.58
2023-02-11T09:41:43.278Z,39.53
2023-02-11T09:44:25.105Z,38.63
2023-02-11T09:47:04.493Z,39.97
2023-02-11T09:49:45.425Z,39.45
2023-02-11T09:52:30.378Z,39.65
2023-02-11T09:55:00.517Z,39.63
2023-02-11T09:57:34.137Z,39.25
2023-02-11T10:00:02.029Z,39.88
2023-02-11T10:02:50.498Z,39.75
2023-02-11T10:05:29.624Z,40.47
2023-02-11T10:08:10.140Z,40.15
2023-02-11T10:11:09.025Z,38.95
2023-02-11T10:13:42.675Z,39.53
2023-02-11T10:16:21.763Z,38.95
2023-02-11T10:18:57.166Z,38.53
2023-02-11T10:21:24.349Z,40.25
2023-02-11T10:23:56.760Z,39.72
2023-02-11T10:26:26.702Z,38.50
2023-02-11T10:28:56.057Z,38.40
2023-02-11T10:31:40.131Z,40.10
2023-02-11T10:34:12.473Z,41.37
2023-02-11T10:36:42.812Z,39.35
2023-02-11T10:39:21.133Z,38.83
2023-02-11T10:41:54.594Z,39.55
2023-02-11T10:44:33.396Z,39.88
2023-02-11T10:47:05.412Z,38.88
2023-02-11T10:49:42.701Z,39.13
2023-02-11T10:52:27.933Z,40.70
2023-02-11T10:55:23.029Z,41.10
2023-02-11T10:57:57.974Z,41.83
2023-02-11T11:00:37.045Z,39.73
2023-02-11T11:03:07.929Z,39.65
2023-02-11T11:05:37.867Z,39.90
2023-02-11T11:08:09.810Z,41.00
2023-02-11T11:10:43.754Z,39.88
2023-02-11T11:13:32.464Z,37.10
2023-02-11T11:16:14.533Z,38.45
2023-02-11T11:18:43.887Z,38.92
2023-02-11T11:21:49.713Z,38.97
2023-02-11T11:24:27.640Z,38.30
2023-02-11T11:26:58.322Z,38.25
2023-02-11T11:29:30.624Z,37.95
2023-02-11T11:32:01.455Z,37.20
2023-02-11T11:34:38.697Z,38.78
2023-02-11T11:37:26.465Z,37.72
2023-02-11T11:40:24.304Z,38.65
2023-02-11T11:43:06.806Z,39.25
2023-02-11T11:45:33.762Z,38.25
2023-02-11T11:48:09.585Z,37.97
2023-02-11T11:50:52.812Z,37.53
2023-02-11T11:53:19.962Z,37.53
2023-02-11T11:56:07.698Z,38.25
2023-02-11T11:58:35.281Z,37.92
2023-02-11T12:01:30.228Z,36.72
2023-02-11T12:04:03.408Z,36.55
2023-02-11T12:07:07.700Z,36.70
2023-02-11T12:09:43.844Z,37.30
2023-02-11T12:12:32.195Z,38.28
2023-02-11T12:15:23.940Z,36.90
2023-02-11T12:18:38.048Z,37.20
2023-02-11T12:21:22.858Z,34.13
2023-02-11T12:24:16.280Z,36.92
2023-02-11T12:26:50.104Z,34.33
2023-02-11T12:29:39.741Z,33.67
2023-02-11T12:32:28.491Z,34.65
2023-02-11T12:34:58.210Z,34.65
2023-02-11T12:38:09.883Z,33.45
2023-02-11T12:40:53.666Z,35.85
2023-02-11T12:43:24.396Z,33.47
2023-02-11T12:46:08.302Z,34.00
2023-02-11T12:48:41.089Z,32.40
2023-02-11T12:51:16.705Z,31.17
2023-02-11T12:53:46.626Z,32.55
2023-02-11T12:56:29.193Z,31.95
2023-02-11T12:58:59.007Z,31.10
2023-02-11T13:01:39.727Z,31.42
2023-02-11T13:04:15.744Z,32.95
2023-02-11T13:06:48.598Z,31.60
2023-02-11T13:09:22.645Z,32.15
2023-02-11T13:11:57.888Z,30.73
2023-02-11T13:14:29.986Z,31.83
2023-02-11T13:16:58.714Z,30.98
2023-02-11T13:19:31.799Z,31.52
2023-02-11T13:22:17.630Z,32.13
2023-02-11T13:24:50.941Z,32.00
2023-02-11T13:27:36.841Z,31.95
2023-02-11T13:30:19.344Z,30.93
2023-02-11T13:32:57.958Z,31.13
2023-02-11T13:35:57.029Z,31.58
2023-02-11T13:38:29.412Z,32.65
2023-02-11T13:41:27.623Z,32.03
2023-02-11T13:44:02.585Z,31.15
2023-02-11T13:46:53.918Z,32.03
2023-02-11T13:49:33.948Z,32.10
2023-02-11T13:52:03.974Z,32.03
2023-02-11T13:54:39.781Z,31.48
2023-02-11T13:57:37.311Z,30.55
2023-02-11T14:00:39.434Z,30.88
2023-02-11T14:03:30.912Z,30.60
2023-02-11T14:06:28.456Z,30.13
2023-02-11T14:09:10.401Z,29.40
2023-02-11T14:12:30.337Z,30.08
2023-02-11T14:15:07.898Z,27.40
2023-02-11T14:17:35.642Z,28.60
2023-02-11T14:22:50.368Z,27.90
2023-02-11T14:25:27.069Z,28.20
2023-02-11T14:28:23.604Z,28.83
2023-02-11T14:31:13.297Z,28.30
2023-02-11T14:33:40.657Z,27.70
2023-02-11T14:36:59.709Z,27.27
2023-02-11T14:39:41.199Z,26.40
2023-02-11T14:42:20.894Z,27.43
2023-02-11T14:44:50.782Z,28.50
2023-02-11T14:47:23.393Z,28.03
2023-02-11T14:49:51.796Z,27.67
2023-02-11T14:52:25.193Z,28.40
2023-02-11T14:54:57.194Z,27.90
2023-02-11T14:57:24.402Z,27.38
2023-02-11T15:00:06.132Z,27.48
2023-02-11T15:02:36.737Z,27.30
2023-02-11T15:05:32.867Z,26.65
2023-02-11T15:08:02.963Z,28.38
2023-02-11T15:10:41.103Z,27.92
2023-02-11T15:13:09.043Z,27.10
2023-02-11T15:15:40.619Z,26.67
2023-02-11T15:18:10.145Z,26.10
2023-02-11T15:20:37.214Z,26.00
2023-02-11T15:23:08.056Z,26.02
2023-02-11T15:25:42.373Z,24.77
2023-02-11T15:28:21.439Z,24.80
2023-02-11T15:31:01.241Z,25.95
2023-02-11T15:33:30.690Z,24.42
2023-02-11T15:35:58.957Z,25.13
2023-02-11T15:38:26.165Z,25.38
2023-02-11T15:41:00.521Z,24.60
2023-02-11T15:43:47.883Z,24.90
2023-02-11T15:46:20.752Z,23.70
2023-02-11T15:48:50.481Z,25.35
2023-02-11T15:51:29.740Z,25.13
2023-02-11T15:53:59.709Z,24.77
2023-02-11T15:56:30.565Z,25.50
2023-02-11T15:59:02.446Z,25.90
2023-02-11T16:01:38.291Z,25.95
2023-02-11T16:04:05.853Z,26.58
2023-02-11T16:06:41.130Z,26.65
2023-02-11T16:09:13.618Z,26.95
2023-02-11T16:11:46.779Z,26.65
2023-02-11T16:14:23.431Z,27.35
2023-02-11T16:16:58.257Z,28.23
2023-02-11T16:19:27.256Z,26.30
2023-02-11T16:21:56.535Z,26.67
2023-02-11T16:24:33.535Z,27.13
2023-02-11T16:27:02.708Z,26.17
2023-02-11T16:29:35.701Z,27.30
2023-02-11T16:32:27.523Z,27.02
2023-02-11T16:35:00.832Z,26.30
2023-02-11T16:37:28.281Z,26.20
2023-02-11T16:40:00.971Z,25.30
2023-02-11T16:42:27.859Z,25.27
2023-02-11T16:44:54.754Z,26.05
2023-02-11T16:47:27.020Z,26.08
2023-02-11T16:49:55.588Z,25.30
2023-02-11T16:52:23.106Z,25.77
2023-02-11T16:54:50.285Z,26.70
2023-02-11T16:57:19.961Z,24.77
2023-02-11T16:59:48.471Z,25.48
2023-02-11T17:02:25.266Z,26.13
2023-02-11T17:04:56.264Z,25.92
2023-02-11T17:07:23.308Z,25.67
2023-02-11T17:09:51.711Z,26.08
2023-02-11T17:12:19.289Z,25.75
2023-02-11T17:14:46.169Z,26.13
2023-02-11T17:17:13.681Z,25.53
2023-02-11T17:19:40.781Z,25.67
2023-02-11T17:22:07.930Z,26.40
2023-02-11T17:24:34.830Z,25.27
2023-02-11T17:27:01.672Z,25.35
2023-02-11T17:29:28.572Z,25.20
2023-02-11T17:31:56.064Z,24.45
2023-02-11T17:34:23.870Z,26.10
2023-02-11T17:36:50.834Z,51.27
2023-02-11T17:39:19.242Z,39.70
2023-02-11T17:41:46.738Z,41.33
2023-02-11T17:44:15.680Z,34.70
2023-02-11T17:46:42.980Z,31.92
2023-02-11T17:49:11.805Z,31.00
2023-02-11T17:51:40.241Z,39.30
2023-02-11T17:54:20.180Z,34.72
2023-02-11T17:56:50.715Z,28.08
2023-02-11T17:59:17.858Z,28.50
2023-02-11T18:01:44.699Z,22.70
2023-02-11T18:04:16.571Z,24.70
2023-02-11T18:06:43.757Z,16.60
2023-02-11T18:09:11.196Z,18.03
2023-02-11T18:11:39.570Z,15.52
2023-02-11T18:14:07.962Z,15.00
2023-02-11T18:16:36.693Z,16.95
2023-02-11T18:19:04.471Z,18.30
2023-02-11T18:21:31.411Z,19.88
2023-02-11T18:24:01.140Z,20.52
2023-02-11T18:26:31.301Z,15.50
2023-02-11T18:29:00.137Z,11.73
2023-02-11T18:31:28.036Z,22.07
2023-02-11T18:33:55.244Z,19.00
2023-02-11T18:36:23.021Z,10.13
2023-02-11T18:38:50.081Z,9.50
2023-02-11T18:41:16.990Z,8.40
2023-02-11T18:43:44.057Z,7.85
2023-02-11T18:46:13.819Z,7.83
2023-02-11T18:48:41.215Z,7.60
2023-02-11T18:51:18.390Z,8.23
2023-02-11T18:53:45.430Z,8.35
2023-02-11T18:56:15.315Z,7.82
2023-02-11T18:58:42.266Z,8.88
2023-02-11T19:01:15.320Z,8.13
2023-02-11T19:03:43.046Z,8.05
2023-02-11T19:06:15.892Z,7.85
2023-02-11T19:08:42.997Z,8.65
2023-02-11T19:11:10.164Z,7.93
2023-02-11T19:13:38.115Z,8.63
2023-02-11T19:16:11.319Z,8.30
2023-02-11T19:18:38.864Z,7.13
2023-02-11T19:21:10.441Z,7.85
2023-02-11T19:23:38.159Z,7.40
2023-02-11T19:26:06.549Z,7.30
2023-02-11T19:28:37.164Z,8.10
2023-02-11T19:31:09.087Z,12.23
2023-02-11T19:33:36.376Z,20.13
2023-02-11T19:36:07.642Z,11.33
2023-02-11T19:38:35.501Z,7.85
2023-02-11T19:41:05.080Z,7.43
2023-02-11T19:43:31.979Z,8.48
2023-02-11T19:46:01.025Z,8.27
2023-02-11T19:48:28.078Z,8.40
2023-02-11T19:50:55.126Z,8.38
2023-02-11T19:53:22.477Z,8.40
2023-02-11T19:55:50.150Z,11.80
2023-02-11T19:58:17.553Z,8.88
2023-02-11T20:00:44.589Z,8.43
2023-02-11T20:03:11.478Z,8.35
2023-02-11T20:05:42.380Z,10.95
2023-02-11T20:08:09.567Z,10.93
2023-02-11T20:10:36.529Z,15.20
2023-02-11T20:13:04.013Z,10.70
2023-02-11T20:15:31.125Z,9.13
2023-02-11T20:17:57.937Z,8.82
2023-02-11T20:20:25.070Z,8.63
2023-02-11T20:22:54.671Z,7.88
2023-02-11T20:25:21.712Z,7.85
2023-02-11T20:27:49.200Z,8.07
2023-02-11T20:30:16.803Z,9.70
2023-02-11T20:32:46.648Z,9.30
2023-02-11T20:35:13.797Z,9.35
2023-02-11T20:37:43.782Z,8.10
2023-02-11T20:40:11.482Z,8.32
2023-02-11T20:42:38.494Z,8.03
2023-02-11T20:45:05.572Z,9.95
2023-02-11T20:47:32.580Z,12.32
2023-02-11T20:50:02.465Z,10.30
2023-02-11T20:52:29.384Z,8.82
2023-02-11T20:54:56.271Z,7.85
2023-02-11T20:57:27.938Z,8.35
2023-02-11T20:59:55.194Z,8.95
2023-02-11T21:02:24.658Z,8.55
2023-02-11T21:04:51.747Z,8.27
2023-02-11T21:07:18.860Z,8.40
2023-02-11T21:09:45.658Z,7.72
2023-02-11T21:12:13.175Z,8.15
2023-02-11T21:14:40.015Z,7.65
2023-02-11T21:17:07.581Z,8.02
2023-02-11T21:19:34.390Z,8.77
2023-02-11T21:22:01.806Z,8.50
2023-02-11T21:24:28.891Z,9.25
2023-02-11T21:26:55.905Z,9.27
2023-02-11T21:29:22.881Z,10.07
2023-02-11T21:31:51.333Z,10.50
2023-02-11T21:34:18.491Z,10.98
2023-02-11T21:36:45.487Z,10.20
2023-02-11T21:39:13.676Z,10.05
2023-02-11T21:41:40.529Z,9.80
2023-02-11T21:44:07.401Z,10.13
2023-02-11T21:46:34.412Z,10.77
2023-02-11T21:49:01.337Z,11.27
2023-02-11T21:51:28.377Z,10.63
2023-02-11T21:53:58.674Z,8.63
2023-02-11T21:56:28.147Z,10.23
2023-02-11T21:58:56.815Z,9.65
2023-02-11T22:01:29.060Z,9.90
2023-02-11T22:03:56.224Z,9.73
2023-02-11T22:06:31.092Z,9.93
2023-02-11T22:08:58.529Z,9.85
2023-02-11T22:11:25.468Z,9.87
2023-02-11T22:13:56.453Z,9.90
2023-02-11T22:16:24.097Z,9.00
2023-02-11T22:18:51.571Z,10.23
2023-02-11T22:21:22.256Z,8.93
2023-02-11T22:23:50.513Z,9.40
2023-02-11T22:26:23.288Z,9.52
2023-02-11T22:28:51.508Z,9.82
2023-02-11T22:31:30.465Z,10.77
2023-02-11T22:33:58.347Z,11.13
2023-02-11T22:36:28.247Z,11.95
2023-02-11T22:38:55.594Z,13.00
2023-02-11T22:41:23.624Z,14.77
2023-02-11T22:43:50.762Z,16.20
2023-02-11T22:46:19.144Z,17.60
2023-02-11T22:48:46.915Z,16.80
2023-02-11T22:51:20.577Z,18.58
2023-02-11T22:54:01.769Z,19.95
2023-02-11T22:56:30.272Z,20.38
2023-02-11T22:59:08.390Z,22.27
2023-02-11T23:01:35.854Z,21.27
2023-02-11T23:04:05.813Z,21.17
2023-02-11T23:06:33.096Z,21.52
2023-02-11T23:09:00.138Z,21.45
2023-02-11T23:11:30.375Z,21.15
2023-02-11T23:13:57.314Z,21.55
2023-02-11T23:16:27.042Z,22.38
2023-02-11T23:18:54.646Z,22.38
2023-02-11T23:21:24.784Z,21.33
2023-02-11T23:23:57.878Z,22.52
2023-02-11T23:26:25.684Z,22.08
2023-02-11T23:28:52.715Z,22.63
2023-02-11T23:31:22.819Z,22.60
2023-02-11T23:33:50.902Z,21.95
2023-02-11T23:36:19.359Z,22.15
2023-02-11T23:38:46.855Z,22.17
2023-02-11T23:41:14.723Z,22.30
2023-02-11T23:43:41.568Z,21.63
2023-02-11T23:46:09.133Z,22.15
2023-02-11T23:48:38.016Z,22.42
2023-02-11T23:51:05.071Z,21.70
2023-02-11T23:53:32.052Z,22.23
2023-02-11T23:55:58.920Z,21.95
2023-02-11T23:58:25.748Z,21.98
